Clendenin, West Virginia
Current Conditions -  °F | °C
As of 7:54 PM on Friday 31 Oct 2014 (Local Time) from KCRW Reporting Station
Light Rain Light Rain  
Wind Chill: 43°   Ceiling: 1300
Heat Index: 43°   Visibility: 5mi
Dew Point: 41°   Wind: 3mph
Humidity: 93%   Direction: 220°SW
Pressure: 29.87"   Gusts: NA
Location:  38.49°N, 81.35°W
Report Text: KCRW 312354Z 22003KT 5SM -RA BR BKN013 OVC028 06/05 A2987 RMK AO2 SLP120 VLY FG P0003 60014 T00610050 10094 20061 51006
Loading
Personal Weather Stations






























Interactive Weather Map
Tropical Storm Tracking
New forecast layout! Learn more

10-Day Weather Forecast

Advertisements
Track Severe Weather on mobile